Time;durP1;ratioP1;P1;durP2;ratioP2;P2;SDS_P1;SDS_P2;PMS_P1;PMS_P2;Temp;Humidity;BMP_temperature;BMP_pressure;BME280_temperature;BME280_humidity;BME280_pressure;Samples;Min_cycle;Max_cycle;Signal;HPM_P1;HPM_P2
2023/11/27 00:02:22;;;;;;;0.88;0.88;;;;;;;;;;4429948;32;20541;-61
2023/11/27 00:04:48;;;;;;;0.50;0.50;;;;;;;;;;4427691;32;20081;-61
2023/11/27 00:07:14;;;;;;;0.90;0.90;;;;;;;;;;4429639;32;20508;-60
2023/11/27 00:09:40;;;;;;;0.43;0.43;;;;;;;;;;4429076;32;20120;-61
2023/11/27 00:12:06;;;;;;;1.45;1.35;;;;;;;;;;4428830;32;20127;-60
2023/11/27 00:14:32;;;;;;;0.52;0.52;;;;;;;;;;4429733;32;20101;-61
2023/11/27 00:16:58;;;;;;;1.23;1.17;;;;;;;;;;4426535;32;20058;-61
2023/11/27 00:19:24;;;;;;;0.65;0.65;;;;;;;;;;4429562;32;20070;-61
2023/11/27 00:21:50;;;;;;;0.52;0.52;;;;;;;;;;4427982;32;20395;-60
2023/11/27 00:24:16;;;;;;;1.58;1.30;;;;;;;;;;4425246;32;20065;-60
2023/11/27 00:26:42;;;;;;;1.17;1.08;;;;;;;;;;4428319;32;20101;-61
2023/11/27 00:29:09;;;;;;;1.90;1.75;;;;;;;;;;4430198;32;20072;-61
2023/11/27 00:31:34;;;;;;;0.57;0.57;;;;;;;;;;4422380;32;20493;-61
2023/11/27 00:34:00;;;;;;;3.22;2.03;;;;;;;;;;4421619;32;20066;-59
2023/11/27 00:36:26;;;;;;;2.05;1.77;;;;;;;;;;4411039;32;20057;-60
2023/11/27 00:38:52;;;;;;;0.60;0.60;;;;;;;;;;4428656;32;20500;-61
2023/11/27 00:41:18;;;;;;;0.62;0.62;;;;;;;;;;4427830;32;20116;-61
2023/11/27 00:43:45;;;;;;;0.40;0.40;;;;;;;;;;4429449;32;20073;-60
2023/11/27 00:46:11;;;;;;;0.40;0.40;;;;;;;;;;4431391;32;20131;-61
2023/11/27 00:48:37;;;;;;;0.60;0.60;;;;;;;;;;4425602;32;20076;-59
2023/11/27 00:51:03;;;;;;;0.35;0.35;;;;;;;;;;4428714;32;20629;-61
2023/11/27 00:53:29;;;;;;;0.35;0.35;;;;;;;;;;4427243;32;20132;-61
2023/11/27 00:55:55;;;;;;;0.40;0.40;;;;;;;;;;4427380;32;20385;-61
2023/11/27 00:58:21;;;;;;;3.00;1.75;;;;;;;;;;4427423;32;20085;-62
2023/11/27 01:00:47;;;;;;;0.57;0.57;;;;;;;;;;4424071;32;20165;-59
2023/11/27 01:03:13;;;;;;;0.50;0.50;;;;;;;;;;4429226;32;20891;-61
2023/11/27 01:05:39;;;;;;;0.50;0.50;;;;;;;;;;4425041;32;20093;-59
2023/11/27 01:08:05;;;;;;;0.30;0.30;;;;;;;;;;4413830;32;20140;-60
2023/11/27 01:10:31;;;;;;;0.50;0.50;;;;;;;;;;4425781;32;20296;-60
2023/11/27 01:12:58;;;;;;;1.25;0.80;;;;;;;;;;4412098;32;20082;-61
2023/11/27 01:15:25;;;;;;;0.77;0.77;;;;;;;;;;4414425;32;20123;-60
2023/11/27 01:17:51;;;;;;;0.40;0.40;;;;;;;;;;4427939;32;20139;-61
2023/11/27 01:20:17;;;;;;;0.37;0.37;;;;;;;;;;4412714;32;20120;-60
2023/11/27 01:22:42;;;;;;;0.50;0.50;;;;;;;;;;4425608;32;20124;-60
2023/11/27 01:25:10;;;;;;;0.50;0.50;;;;;;;;;;4427918;32;20056;-59
2023/11/27 01:27:35;;;;;;;0.50;0.50;;;;;;;;;;4428084;32;20064;-61
2023/11/27 01:30:02;;;;;;;0.62;0.62;;;;;;;;;;4432791;32;20065;-60
2023/11/27 01:32:27;;;;;;;0.50;0.50;;;;;;;;;;4426228;32;20143;-60
2023/11/27 01:34:53;;;;;;;1.02;0.90;;;;;;;;;;4425861;32;20128;-61
2023/11/27 01:37:20;;;;;;;0.88;0.88;;;;;;;;;;4426930;32;20081;-60
2023/11/27 01:39:46;;;;;;;0.40;0.40;;;;;;;;;;4427612;32;20169;-60
2023/11/27 01:42:12;;;;;;;0.60;0.60;;;;;;;;;;4420998;32;20078;-60
2023/11/27 01:44:38;;;;;;;0.60;0.60;;;;;;;;;;4415053;32;20081;-55
2023/11/27 01:47:05;;;;;;;0.40;0.40;;;;;;;;;;4427220;32;20585;-57
2023/11/27 01:49:31;;;;;;;0.60;0.60;;;;;;;;;;4425913;32;20931;-59
2023/11/27 01:51:58;;;;;;;0.52;0.52;;;;;;;;;;4430155;32;20421;-59
2023/11/27 01:54:25;;;;;;;0.93;0.93;;;;;;;;;;4428561;32;20089;-56
2023/11/27 01:56:52;;;;;;;0.95;0.95;;;;;;;;;;4427011;32;20077;-57
2023/11/27 01:59:18;;;;;;;1.12;1.00;;;;;;;;;;4414052;32;20997;-60
2023/11/27 02:01:44;;;;;;;0.40;0.40;;;;;;;;;;4426404;32;20065;-58
2023/11/27 02:04:11;;;;;;;2.83;1.85;;;;;;;;;;4414403;32;20462;-58
2023/11/27 02:06:37;;;;;;;0.50;0.50;;;;;;;;;;4429763;32;20086;-60
2023/11/27 02:09:03;;;;;;;0.52;0.52;;;;;;;;;;4430868;32;20077;-56
2023/11/27 02:11:30;;;;;;;0.75;0.75;;;;;;;;;;4430895;32;20085;-59
2023/11/27 02:13:56;;;;;;;0.35;0.35;;;;;;;;;;4430199;32;20066;-57
2023/11/27 02:16:23;;;;;;;0.98;0.93;;;;;;;;;;4430542;32;20081;-53
2023/11/27 02:18:48;;;;;;;4.20;0.93;;;;;;;;;;4430389;32;20127;-59
2023/11/27 02:21:17;;;;;;;0.65;0.65;;;;;;;;;;4429524;32;20719;-61
2023/11/27 02:23:43;;;;;;;0.30;0.30;;;;;;;;;;4427513;32;20650;-60
2023/11/27 02:26:09;;;;;;;0.30;0.30;;;;;;;;;;4429667;32;20070;-57
2023/11/27 02:28:35;;;;;;;0.60;0.60;;;;;;;;;;4428394;32;20078;-59
2023/11/27 02:31:01;;;;;;;0.40;0.40;;;;;;;;;;4427082;32;20065;-60
2023/11/27 02:33:27;;;;;;;0.62;0.62;;;;;;;;;;4428339;32;20073;-60
2023/11/27 02:35:53;;;;;;;0.40;0.40;;;;;;;;;;4429871;32;20070;-59
2023/11/27 02:38:19;;;;;;;0.82;0.82;;;;;;;;;;4415363;32;20069;-60
2023/11/27 02:40:45;;;;;;;0.68;0.68;;;;;;;;;;4425624;32;20758;-58
2023/11/27 02:43:11;;;;;;;0.50;0.50;;;;;;;;;;4428332;32;20069;-59
2023/11/27 02:45:37;;;;;;;0.30;0.30;;;;;;;;;;4429235;32;20512;-53
2023/11/27 02:48:03;;;;;;;0.80;0.75;;;;;;;;;;4427878;32;20174;-61
2023/11/27 02:50:29;;;;;;;0.50;0.50;;;;;;;;;;4428037;32;20136;-59
2023/11/27 02:52:55;;;;;;;0.30;0.30;;;;;;;;;;4416332;32;20524;-59
2023/11/27 02:55:21;;;;;;;0.80;0.80;;;;;;;;;;4429094;32;20077;-59
2023/11/27 02:57:47;;;;;;;0.43;0.43;;;;;;;;;;4414517;32;20073;-58
2023/11/27 03:00:15;;;;;;;0.85;0.85;;;;;;;;;;4426339;32;20102;-60
2023/11/27 03:02:42;;;;;;;0.82;0.82;;;;;;;;;;4427527;32;20123;-60
2023/11/27 03:05:08;;;;;;;0.50;0.50;;;;;;;;;;4415504;32;20086;-59
2023/11/27 03:07:35;;;;;;;0.40;0.40;;;;;;;;;;4431175;32;20057;-59
2023/11/27 03:10:01;;;;;;;0.40;0.40;;;;;;;;;;4431348;32;20601;-60
2023/11/27 03:12:27;;;;;;;1.90;1.17;;;;;;;;;;4428365;32;20104;-60
2023/11/27 03:14:53;;;;;;;0.47;0.47;;;;;;;;;;4429208;32;20081;-61
2023/11/27 03:17:21;;;;;;;0.98;0.95;;;;;;;;;;4424845;32;20175;-61
2023/11/27 03:19:47;;;;;;;0.65;0.57;;;;;;;;;;4428322;32;20616;-60
2023/11/27 03:22:13;;;;;;;0.30;0.30;;;;;;;;;;4428772;32;20069;-61
2023/11/27 03:24:39;;;;;;;0.70;0.70;;;;;;;;;;4427309;32;20102;-60
2023/11/27 03:27:05;;;;;;;0.40;0.40;;;;;;;;;;4431702;32;20077;-61
2023/11/27 03:29:31;;;;;;;0.40;0.40;;;;;;;;;;4426986;32;20077;-60
2023/11/27 03:31:57;;;;;;;0.43;0.43;;;;;;;;;;4424650;32;20167;-61
2023/11/27 03:34:23;;;;;;;0.40;0.40;;;;;;;;;;4427206;32;20073;-60
2023/11/27 03:36:49;;;;;;;0.43;0.43;;;;;;;;;;4426591;32;20359;-61
2023/11/27 03:39:15;;;;;;;0.40;0.40;;;;;;;;;;4426654;32;20090;-60
2023/11/27 03:41:40;;;;;;;0.60;0.60;;;;;;;;;;4429391;32;20772;-61
2023/11/27 03:44:08;;;;;;;0.57;0.57;;;;;;;;;;4428160;32;20146;-60
2023/11/27 03:46:34;;;;;;;0.47;0.47;;;;;;;;;;4417898;32;20532;-60
2023/11/27 03:49:00;;;;;;;0.40;0.40;;;;;;;;;;4429036;32;20089;-61
2023/11/27 03:51:26;;;;;;;0.35;0.35;;;;;;;;;;4427585;32;20073;-59
2023/11/27 03:53:52;;;;;;;0.70;0.70;;;;;;;;;;4427399;32;20517;-60
2023/11/27 03:56:18;;;;;;;0.40;0.40;;;;;;;;;;4429025;32;20069;-61
2023/11/27 03:58:44;;;;;;;0.85;0.80;;;;;;;;;;4429328;32;20090;-61
2023/11/27 04:01:13;;;;;;;0.40;0.40;;;;;;;;;;4427288;32;20081;-60
2023/11/27 04:03:40;;;;;;;0.32;0.32;;;;;;;;;;4428332;32;20548;-60
2023/11/27 04:06:06;;;;;;;0.40;0.40;;;;;;;;;;4426952;32;20073;-61
2023/11/27 04:08:32;;;;;;;0.50;0.50;;;;;;;;;;4429031;32;20073;-61
2023/11/27 04:10:58;;;;;;;0.95;0.90;;;;;;;;;;4428758;32;20068;-60
2023/11/27 04:13:23;;;;;;;0.88;0.85;;;;;;;;;;4428531;32;20184;-62
2023/11/27 04:15:49;;;;;;;0.40;0.40;;;;;;;;;;4427962;32;20053;-61
2023/11/27 04:18:15;;;;;;;0.40;0.40;;;;;;;;;;4427732;32;20073;-60
2023/11/27 04:20:42;;;;;;;0.85;0.85;;;;;;;;;;4430823;32;20469;-62
2023/11/27 04:23:07;;;;;;;0.50;0.50;;;;;;;;;;4430387;32;20082;-61
2023/11/27 04:25:33;;;;;;;0.75;0.75;;;;;;;;;;4427817;32;20062;-62
2023/11/27 04:27:59;;;;;;;0.40;0.40;;;;;;;;;;4429570;32;20073;-61
2023/11/27 04:30:25;;;;;;;9.95;2.37;;;;;;;;;;4429593;32;20076;-62
2023/11/27 04:32:52;;;;;;;1.27;0.85;;;;;;;;;;4429729;32;20499;-62
2023/11/27 04:35:18;;;;;;;0.60;0.60;;;;;;;;;;4428020;32;20316;-60
2023/11/27 04:37:44;;;;;;;1.00;0.98;;;;;;;;;;4430769;32;20454;-61
2023/11/27 04:40:10;;;;;;;0.95;0.95;;;;;;;;;;4426523;32;20184;-61
2023/11/27 04:42:38;;;;;;;0.40;0.40;;;;;;;;;;4428969;32;20103;-60
2023/11/27 04:45:04;;;;;;;1.60;0.62;;;;;;;;;;4431717;32;20077;-60
2023/11/27 04:47:30;;;;;;;0.30;0.30;;;;;;;;;;4433561;32;20920;-60
2023/11/27 04:49:56;;;;;;;1.85;0.73;;;;;;;;;;4432134;32;20068;-59
2023/11/27 04:52:22;;;;;;;0.70;0.70;;;;;;;;;;4429425;32;20077;-60
2023/11/27 04:54:48;;;;;;;1.50;1.40;;;;;;;;;;4427749;32;20077;-62
2023/11/27 04:57:14;;;;;;;0.43;0.43;;;;;;;;;;4428337;32;20145;-61
2023/11/27 04:59:40;;;;;;;1.98;1.12;;;;;;;;;;4428007;32;20085;-60
2023/11/27 05:02:05;;;;;;;0.60;0.60;;;;;;;;;;4427092;32;20466;-61
2023/11/27 05:04:33;;;;;;;0.57;0.57;;;;;;;;;;4432394;32;20085;-59
2023/11/27 05:07:00;;;;;;;0.40;0.40;;;;;;;;;;4429052;32;20105;-61
2023/11/27 05:09:27;;;;;;;0.82;0.82;;;;;;;;;;4427048;32;20076;-61
2023/11/27 05:11:53;;;;;;;3.35;0.80;;;;;;;;;;4427451;32;20081;-61
2023/11/27 05:14:19;;;;;;;0.85;0.85;;;;;;;;;;4426900;32;20104;-58
2023/11/27 05:16:45;;;;;;;0.60;0.60;;;;;;;;;;4425555;32;20120;-61
2023/11/27 05:19:11;;;;;;;0.40;0.40;;;;;;;;;;4427479;32;20171;-61
2023/11/27 05:21:37;;;;;;;0.88;0.65;;;;;;;;;;4423425;32;20469;-60
2023/11/27 05:24:03;;;;;;;0.50;0.50;;;;;;;;;;4429254;32;20089;-59
2023/11/27 05:26:28;;;;;;;0.55;0.55;;;;;;;;;;4426646;32;20493;-61
2023/11/27 05:28:54;;;;;;;0.30;0.30;;;;;;;;;;4416256;32;20647;-58
2023/11/27 05:31:24;;;;;;;0.80;0.75;;;;;;;;;;4427131;32;20077;-59
2023/11/27 05:33:50;;;;;;;0.40;0.40;;;;;;;;;;4425415;32;20065;-59
2023/11/27 05:36:16;;;;;;;1.45;1.20;;;;;;;;;;4426392;32;20141;-59
2023/11/27 05:38:42;;;;;;;0.40;0.40;;;;;;;;;;4426437;32;20112;-59
2023/11/27 05:41:12;;;;;;;0.50;0.50;;;;;;;;;;4429873;32;20081;-58
2023/11/27 05:43:38;;;;;;;1.25;1.15;;;;;;;;;;4407821;32;20107;-60
2023/11/27 05:46:04;;;;;;;2.08;1.08;;;;;;;;;;4433519;32;20451;-57
2023/11/27 05:48:30;;;;;;;0.88;0.82;;;;;;;;;;4430180;32;20061;-59
2023/11/27 05:50:56;;;;;;;1.08;0.88;;;;;;;;;;4430690;32;20427;-59
2023/11/27 05:53:22;;;;;;;0.40;0.40;;;;;;;;;;4416422;32;20138;-59
2023/11/27 05:55:48;;;;;;;0.60;0.60;;;;;;;;;;4419327;32;20070;-60
2023/11/27 05:58:15;;;;;;;0.40;0.40;;;;;;;;;;4426453;32;20521;-60
2023/11/27 06:00:41;;;;;;;0.40;0.40;;;;;;;;;;4412140;32;20073;-59
2023/11/27 06:03:07;;;;;;;0.85;0.85;;;;;;;;;;4414996;32;20204;-59
2023/11/27 06:05:34;;;;;;;0.30;0.30;;;;;;;;;;4424393;32;20085;-60
2023/11/27 06:08:00;;;;;;;0.40;0.40;;;;;;;;;;4404963;32;20089;-57
2023/11/27 06:10:26;;;;;;;4.10;1.15;;;;;;;;;;4427251;32;20596;-58
2023/11/27 06:12:52;;;;;;;0.37;0.37;;;;;;;;;;4414838;32;20128;-60
2023/11/27 06:15:18;;;;;;;0.47;0.47;;;;;;;;;;4421301;32;20061;-59
2023/11/27 06:17:44;;;;;;;0.82;0.82;;;;;;;;;;4412852;32;20498;-58
2023/11/27 06:20:12;;;;;;;0.30;0.30;;;;;;;;;;4421522;32;20168;-60
2023/11/27 06:22:38;;;;;;;0.40;0.40;;;;;;;;;;4421325;32;20342;-58
2023/11/27 06:25:05;;;;;;;0.32;0.32;;;;;;;;;;4424920;32;20101;-60
2023/11/27 06:27:31;;;;;;;0.40;0.40;;;;;;;;;;4404989;32;20567;-60
2023/11/27 06:29:57;;;;;;;0.30;0.30;;;;;;;;;;4423405;32;21148;-61
2023/11/27 06:32:22;;;;;;;0.47;0.47;;;;;;;;;;4417243;32;20069;-59
2023/11/27 06:34:49;;;;;;;1.65;1.40;;;;;;;;;;4420352;32;20092;-60
2023/11/27 06:37:16;;;;;;;0.30;0.30;;;;;;;;;;4421182;32;20094;-59
2023/11/27 06:39:42;;;;;;;0.47;0.47;;;;;;;;;;4417822;32;20910;-61
2023/11/27 06:42:11;;;;;;;24.95;1.52;;;;;;;;;;4420490;32;20069;-57
2023/11/27 06:44:39;;;;;;;0.50;0.50;;;;;;;;;;4403472;32;20561;-59
2023/11/27 06:47:06;;;;;;;0.43;0.43;;;;;;;;;;4417673;32;21875;-58
2023/11/27 06:49:32;;;;;;;0.43;0.43;;;;;;;;;;4404581;32;20466;-58
2023/11/27 06:51:57;;;;;;;0.70;0.70;;;;;;;;;;4409209;32;20060;-58
2023/11/27 06:54:24;;;;;;;0.57;0.57;;;;;;;;;;4410105;32;20137;-58
2023/11/27 06:56:51;;;;;;;0.70;0.70;;;;;;;;;;4394519;32;20101;-61
2023/11/27 06:59:18;;;;;;;0.60;0.60;;;;;;;;;;4385007;32;20584;-59
2023/11/27 07:04:11;;;;;;;1.65;1.17;;;;;;;;;;4392229;32;20085;-56
2023/11/27 07:06:37;;;;;;;0.70;0.70;;;;;;;;;;4389399;32;21678;-55
2023/11/27 07:09:04;;;;;;;0.50;0.50;;;;;;;;;;4400133;32;20552;-57
2023/11/27 07:11:32;;;;;;;0.30;0.30;;;;;;;;;;4401772;32;20186;-56
2023/11/27 07:13:58;;;;;;;0.30;0.30;;;;;;;;;;4405029;32;20093;-57
2023/11/27 07:16:24;;;;;;;0.60;0.60;;;;;;;;;;4386573;32;20097;-59
2023/11/27 07:18:50;;;;;;;0.70;0.70;;;;;;;;;;4388542;32;20229;-58
2023/11/27 07:21:16;;;;;;;0.40;0.40;;;;;;;;;;4385589;32;20076;-57
2023/11/27 07:23:44;;;;;;;0.40;0.40;;;;;;;;;;4394723;32;20121;-58
2023/11/27 07:26:10;;;;;;;0.60;0.60;;;;;;;;;;4391941;32;20081;-58
2023/11/27 07:28:42;;;;;;;0.30;0.30;;;;;;;;;;4390232;32;20537;-58
2023/11/27 07:31:09;;;;;;;0.30;0.30;;;;;;;;;;4395025;32;20584;-57
2023/11/27 07:33:37;;;;;;;0.45;0.45;;;;;;;;;;4394890;32;20243;-55
2023/11/27 07:36:04;;;;;;;0.30;0.30;;;;;;;;;;4395944;32;20514;-59
2023/11/27 07:38:30;;;;;;;0.40;0.40;;;;;;;;;;4394008;32;20117;-58
2023/11/27 07:40:56;;;;;;;0.32;0.32;;;;;;;;;;4386828;32;20092;-59
2023/11/27 07:43:22;;;;;;;0.52;0.47;;;;;;;;;;4391989;32;20205;-58
2023/11/27 07:45:48;;;;;;;0.45;0.45;;;;;;;;;;4388537;32;20196;-59
2023/11/27 07:48:14;;;;;;;0.32;0.32;;;;;;;;;;4388181;32;20078;-58
2023/11/27 07:50:40;;;;;;;0.40;0.40;;;;;;;;;;4382121;32;20548;-59
2023/11/27 07:53:08;;;;;;;0.50;0.50;;;;;;;;;;4387133;32;20409;-60
2023/11/27 07:55:34;;;;;;;0.50;0.50;;;;;;;;;;4377950;32;20093;-59
2023/11/27 07:58:02;;;;;;;0.47;0.47;;;;;;;;;;4365717;32;20109;-59
2023/11/27 08:00:28;;;;;;;0.32;0.32;;;;;;;;;;4379888;32;20085;-59
2023/11/27 08:02:54;;;;;;;0.40;0.40;;;;;;;;;;4381335;32;20125;-59
2023/11/27 08:05:22;;;;;;;0.40;0.40;;;;;;;;;;4378908;32;20953;-57
2023/11/27 08:07:49;;;;;;;0.30;0.30;;;;;;;;;;4387145;32;20077;-60
2023/11/27 08:10:15;;;;;;;0.47;0.47;;;;;;;;;;4386657;32;20127;-59
2023/11/27 08:12:42;;;;;;;0.50;0.50;;;;;;;;;;4389579;32;20272;-58
2023/11/27 08:15:08;;;;;;;8.25;1.62;;;;;;;;;;4386543;32;22062;-56
2023/11/27 08:17:34;;;;;;;0.43;0.43;;;;;;;;;;4389034;32;20152;-57
2023/11/27 08:20:04;;;;;;;0.50;0.50;;;;;;;;;;4372577;32;20140;-61
2023/11/27 08:22:30;;;;;;;0.40;0.40;;;;;;;;;;4394711;32;20855;-59
2023/11/27 08:24:57;;;;;;;0.30;0.30;;;;;;;;;;4386344;32;20767;-59
2023/11/27 08:27:26;;;;;;;0.40;0.40;;;;;;;;;;4382171;32;20666;-60
2023/11/27 08:29:52;;;;;;;2.83;0.85;;;;;;;;;;4365552;32;20793;-59
2023/11/27 08:32:18;;;;;;;0.30;0.30;;;;;;;;;;4393143;32;20701;-61
2023/11/27 08:34:44;;;;;;;0.40;0.40;;;;;;;;;;4384374;32;21133;-58
2023/11/27 08:37:16;;;;;;;0.55;0.55;;;;;;;;;;4391806;32;20061;-59
2023/11/27 08:39:42;;;;;;;0.50;0.50;;;;;;;;;;4392981;32;20506;-59
2023/11/27 08:42:08;;;;;;;0.35;0.35;;;;;;;;;;4406379;32;20570;-59
2023/11/27 08:44:34;;;;;;;0.50;0.50;;;;;;;;;;4407670;32;20084;-60
2023/11/27 08:47:00;;;;;;;1.00;1.00;;;;;;;;;;4383420;32;20117;-61
2023/11/27 08:49:25;;;;;;;0.68;0.68;;;;;;;;;;4378862;32;20175;-62
2023/11/27 08:51:51;;;;;;;0.32;0.32;;;;;;;;;;4368597;32;20636;-61
2023/11/27 08:54:17;;;;;;;0.40;0.40;;;;;;;;;;4393367;32;20139;-63
2023/11/27 08:56:43;;;;;;;0.40;0.40;;;;;;;;;;4390312;32;20126;-63
2023/11/27 08:59:10;;;;;;;0.50;0.50;;;;;;;;;;4385530;32;21720;-60
2023/11/27 09:01:36;;;;;;;0.37;0.37;;;;;;;;;;4387952;32;20144;-62
2023/11/27 09:04:02;;;;;;;4.25;1.85;;;;;;;;;;4390712;32;20547;-60
2023/11/27 09:06:28;;;;;;;0.30;0.30;;;;;;;;;;4372763;32;20660;-62
2023/11/27 09:08:54;;;;;;;2.28;1.35;;;;;;;;;;4401688;32;20077;-60
2023/11/27 09:11:20;;;;;;;0.55;0.55;;;;;;;;;;4398594;32;20706;-59
2023/11/27 09:13:46;;;;;;;0.30;0.30;;;;;;;;;;4393183;32;20124;-60
2023/11/27 09:16:14;;;;;;;2.83;1.35;;;;;;;;;;4396141;32;20548;-60
2023/11/27 09:18:40;;;;;;;0.40;0.40;;;;;;;;;;4399409;32;20085;-62
2023/11/27 09:21:06;;;;;;;0.77;0.77;;;;;;;;;;4391794;32;20092;-62
2023/11/27 09:23:32;;;;;;;0.30;0.30;;;;;;;;;;4396062;32;20517;-60
2023/11/27 09:25:59;;;;;;;0.40;0.40;;;;;;;;;;4385057;32;20149;-61
2023/11/27 09:28:25;;;;;;;0.45;0.45;;;;;;;;;;4391859;32;20089;-62
2023/11/27 09:30:51;;;;;;;3.17;1.00;;;;;;;;;;4396472;32;20516;-61
2023/11/27 09:33:17;;;;;;;0.50;0.50;;;;;;;;;;4400023;32;20069;-62
2023/11/27 09:35:43;;;;;;;0.35;0.35;;;;;;;;;;4394776;32;20179;-59
2023/11/27 09:38:09;;;;;;;0.50;0.50;;;;;;;;;;4399793;32;20076;-63
2023/11/27 09:40:41;;;;;;;2.17;1.62;;;;;;;;;;4399765;32;20521;-62
2023/11/27 09:43:07;;;;;;;0.73;0.68;;;;;;;;;;4396060;32;20073;-61
2023/11/27 09:45:33;;;;;;;0.37;0.37;;;;;;;;;;4392442;32;20904;-61
2023/11/27 09:48:04;;;;;;;0.47;0.47;;;;;;;;;;4388819;32;20441;-62
2023/11/27 09:50:30;;;;;;;;;;;;;;;;;;4382530;32;20149;-62
2023/11/27 09:53:05;;;;;;;5.40;1.52;;;;;;;;;;4396723;32;19972;-60
2023/11/27 09:55:34;;;;;;;0.57;0.57;;;;;;;;;;4381065;32;20061;-60
2023/11/27 09:58:00;;;;;;;0.40;0.40;;;;;;;;;;4384701;32;20589;-60
2023/11/27 10:00:27;;;;;;;0.77;0.77;;;;;;;;;;4385688;32;20185;-61
2023/11/27 10:02:53;;;;;;;0.40;0.40;;;;;;;;;;4402582;32;20121;-59
2023/11/27 10:05:21;;;;;;;0.60;0.60;;;;;;;;;;4392431;32;20073;-62
2023/11/27 10:07:50;;;;;;;0.40;0.40;;;;;;;;;;4386831;32;20069;-60
2023/11/27 10:10:16;;;;;;;0.50;0.50;;;;;;;;;;4399470;32;20827;-60
2023/11/27 10:12:46;;;;;;;1.65;0.90;;;;;;;;;;4384397;32;20191;-60
2023/11/27 10:15:12;;;;;;;0.70;0.70;;;;;;;;;;4382254;32;20084;-60
2023/11/27 10:17:41;;;;;;;0.57;0.57;;;;;;;;;;4401120;32;20081;-60
2023/11/27 10:20:12;;;;;;;0.47;0.47;;;;;;;;;;4393183;32;20280;-58
2023/11/27 10:22:38;;;;;;;0.68;0.68;;;;;;;;;;4396413;32;20124;-55
2023/11/27 10:25:07;;;;;;;0.70;0.70;;;;;;;;;;4372165;32;20152;-52
2023/11/27 10:27:33;;;;;;;0.45;0.45;;;;;;;;;;4380825;32;20820;-61
2023/11/27 10:30:01;;;;;;;0.55;0.55;;;;;;;;;;4397960;32;20579;-61
2023/11/27 10:32:28;;;;;;;0.65;0.65;;;;;;;;;;4394576;32;20098;-61
2023/11/27 10:34:53;;;;;;;0.30;0.30;;;;;;;;;;4384752;32;20084;-58
2023/11/27 10:37:22;;;;;;;1.55;1.17;;;;;;;;;;4396103;32;20088;-59
2023/11/27 10:39:48;;;;;;;0.68;0.68;;;;;;;;;;4397787;32;20126;-59
2023/11/27 10:42:18;;;;;;;1.35;1.00;;;;;;;;;;4391070;32;21320;-58
2023/11/27 10:44:48;;;;;;;1.25;1.15;;;;;;;;;;4390473;32;20069;-58
2023/11/27 10:47:15;;;;;;;0.70;0.70;;;;;;;;;;4386789;32;20565;-58
2023/11/27 10:49:41;;;;;;;1.55;0.95;;;;;;;;;;4376663;32;20114;-59
2023/11/27 10:52:09;;;;;;;0.70;0.70;;;;;;;;;;4404177;32;20197;-60
2023/11/27 10:54:35;;;;;;;0.50;0.50;;;;;;;;;;4396918;32;20132;-57
2023/11/27 10:57:03;;;;;;;2.90;1.70;;;;;;;;;;4376883;32;20088;-57
2023/11/27 10:59:30;;;;;;;0.50;0.50;;;;;;;;;;4391327;32;20117;-58
2023/11/27 11:02:00;;;;;;;0.30;0.30;;;;;;;;;;4392214;32;20911;-59
2023/11/27 11:04:29;;;;;;;1.30;1.20;;;;;;;;;;4386731;32;20135;-59
2023/11/27 11:06:56;;;;;;;0.50;0.50;;;;;;;;;;4391916;32;20166;-61
2023/11/27 11:09:25;;;;;;;0.50;0.50;;;;;;;;;;4373976;32;20245;-61
2023/11/27 11:11:52;;;;;;;1.17;1.08;;;;;;;;;;4393267;32;20109;-58
2023/11/27 11:14:19;;;;;;;0.70;0.70;;;;;;;;;;4392155;32;20188;-60
2023/11/27 11:16:56;;;;;;;1.37;1.05;;;;;;;;;;4389885;32;20104;-59
2023/11/27 11:19:31;;;;;;;0.90;0.90;;;;;;;;;;4392190;32;20182;-59
2023/11/27 11:22:07;;;;;;;0.40;0.40;;;;;;;;;;4396416;32;20155;-62
2023/11/27 11:24:53;;;;;;;0.88;0.88;;;;;;;;;;4395870;32;20165;-61
2023/11/27 11:27:24;;;;;;;0.50;0.50;;;;;;;;;;4394612;32;20093;-61
2023/11/27 11:29:51;;;;;;;0.50;0.50;;;;;;;;;;4397712;32;20583;-60
2023/11/27 11:32:18;;;;;;;0.60;0.60;;;;;;;;;;4398854;32;20431;-61
2023/11/27 11:34:44;;;;;;;0.80;0.80;;;;;;;;;;4390477;32;20218;-60
2023/11/27 11:37:12;;;;;;;11.70;1.42;;;;;;;;;;4389089;32;20100;-60
2023/11/27 11:39:40;;;;;;;0.50;0.50;;;;;;;;;;4378152;32;20151;-60
2023/11/27 11:42:13;;;;;;;1.35;1.05;;;;;;;;;;4377878;32;20104;-60
2023/11/27 11:44:39;;;;;;;0.88;0.88;;;;;;;;;;4392283;32;20093;-60
2023/11/27 11:47:23;;;;;;;0.37;0.37;;;;;;;;;;4401612;32;20086;-58
2023/11/27 11:49:49;;;;;;;0.57;0.57;;;;;;;;;;4405103;32;96535;-59
2023/11/27 11:52:18;;;;;;;0.65;0.65;;;;;;;;;;4396459;32;20516;-60
2023/11/27 11:54:47;;;;;;;1.12;1.02;;;;;;;;;;4393795;32;20629;-60
2023/11/27 11:57:14;;;;;;;0.60;0.60;;;;;;;;;;4369110;32;20161;-61
2023/11/27 11:59:44;;;;;;;3.03;1.67;;;;;;;;;;4386347;32;20092;-58
2023/11/27 12:02:11;;;;;;;0.68;0.68;;;;;;;;;;4393230;32;20105;-58
2023/11/27 12:04:40;;;;;;;1.05;1.05;;;;;;;;;;4390890;32;20235;-59
2023/11/27 12:07:08;;;;;;;12.05;1.25;;;;;;;;;;4397099;32;20089;-56
2023/11/27 12:09:34;;;;;;;0.47;0.47;;;;;;;;;;4397927;32;20516;-55
2023/11/27 12:12:00;;;;;;;26.87;1.37;;;;;;;;;;4395495;32;20088;-58
2023/11/27 12:14:28;;;;;;;1.00;1.00;;;;;;;;;;4406748;32;20101;-60
2023/11/27 12:16:54;;;;;;;0.57;0.57;;;;;;;;;;4392556;32;20109;-59
2023/11/27 12:19:22;;;;;;;0.55;0.55;;;;;;;;;;4391684;32;20130;-57
2023/11/27 12:21:48;;;;;;;0.40;0.40;;;;;;;;;;4398520;32;20383;-58
2023/11/27 12:24:14;;;;;;;0.65;0.65;;;;;;;;;;4372966;32;20085;-58
2023/11/27 12:26:40;;;;;;;0.70;0.70;;;;;;;;;;4389470;32;21854;-58
2023/11/27 12:29:06;;;;;;;0.50;0.50;;;;;;;;;;4397231;32;21180;-59
2023/11/27 12:31:32;;;;;;;0.35;0.35;;;;;;;;;;4394435;32;20994;-58
2023/11/27 12:34:03;;;;;;;6.30;1.02;;;;;;;;;;4392458;32;20100;-59
2023/11/27 12:36:30;;;;;;;0.50;0.50;;;;;;;;;;4381300;32;20782;-58
2023/11/27 12:38:56;;;;;;;2.15;0.95;;;;;;;;;;4397301;32;20092;-59
2023/11/27 12:41:32;;;;;;;0.32;0.32;;;;;;;;;;4384615;32;20772;-58
2023/11/27 12:44:15;;;;;;;0.65;0.65;;;;;;;;;;4386348;32;21093;-55
2023/11/27 12:46:48;;;;;;;0.60;0.60;;;;;;;;;;4372970;32;20085;-58
2023/11/27 12:49:18;;;;;;;0.40;0.40;;;;;;;;;;4393410;32;21404;-59
2023/11/27 12:51:45;;;;;;;3.93;0.83;;;;;;;;;;4385497;32;20090;-60
2023/11/27 12:54:18;;;;;;;0.47;0.47;;;;;;;;;;4403261;32;20081;-56
2023/11/27 12:56:48;;;;;;;0.98;0.55;;;;;;;;;;4391955;32;20155;-56
2023/11/27 12:59:16;;;;;;;0.43;0.43;;;;;;;;;;4380806;32;20129;-60
2023/11/27 13:04:09;;;;;;;0.60;0.55;;;;;;;;;;4390811;32;20331;-59
2023/11/27 13:06:35;;;;;;;0.40;0.40;;;;;;;;;;4385330;32;20109;-60
2023/11/27 13:09:00;;;;;;;1.02;0.70;;;;;;;;;;4394302;32;20069;-59
2023/11/27 13:11:32;;;;;;;1.40;1.30;;;;;;;;;;4392764;32;20069;-59
2023/11/27 13:14:07;;;;;;;0.65;0.65;;;;;;;;;;4400910;32;20505;-57
2023/11/27 13:16:33;;;;;;;5.30;1.02;;;;;;;;;;4382320;32;20085;-58
2023/11/27 13:19:01;;;;;;;0.40;0.40;;;;;;;;;;4390458;32;20101;-60
2023/11/27 13:21:32;;;;;;;0.60;0.60;;;;;;;;;;4397117;32;20581;-59
2023/11/27 13:23:59;;;;;;;0.90;0.90;;;;;;;;;;4400969;32;20467;-61
2023/11/27 13:26:28;;;;;;;0.37;0.37;;;;;;;;;;4401430;32;20085;-59
2023/11/27 13:28:55;;;;;;;1.80;1.35;;;;;;;;;;4390276;32;20787;-58
2023/11/27 13:31:22;;;;;;;2.62;1.27;;;;;;;;;;4396920;32;20104;-58
2023/11/27 13:33:48;;;;;;;0.45;0.45;;;;;;;;;;4394974;32;20140;-60
2023/11/27 13:36:22;;;;;;;0.62;0.62;;;;;;;;;;4390639;32;20069;-61
2023/11/27 13:38:48;;;;;;;0.30;0.30;;;;;;;;;;4406057;32;20086;-57
2023/11/27 13:41:14;;;;;;;0.37;0.37;;;;;;;;;;4407928;32;20081;-57
2023/11/27 13:43:41;;;;;;;0.75;0.75;;;;;;;;;;4417411;32;20133;-59
2023/11/27 13:46:09;;;;;;;0.52;0.52;;;;;;;;;;4414603;32;20579;-62
2023/11/27 13:48:35;;;;;;;0.43;0.43;;;;;;;;;;4416461;32;20084;-61
2023/11/27 13:51:13;;;;;;;0.80;0.80;;;;;;;;;;4414663;32;20077;-58
2023/11/27 13:53:39;;;;;;;0.40;0.40;;;;;;;;;;4412065;32;20624;-60
2023/11/27 13:56:09;;;;;;;0.40;0.40;;;;;;;;;;4419797;32;20090;-61
2023/11/27 13:58:35;;;;;;;0.55;0.52;;;;;;;;;;4408021;32;20161;-61
2023/11/27 14:01:04;;;;;;;0.40;0.40;;;;;;;;;;4420585;32;20428;-61
2023/11/27 14:03:33;;;;;;;0.40;0.40;;;;;;;;;;4423182;32;20581;-61
2023/11/27 14:06:15;;;;;;;0.85;0.75;;;;;;;;;;4422663;32;20101;-61
2023/11/27 14:08:51;;;;;;;23.90;1.37;;;;;;;;;;4426281;32;20525;-61
2023/11/27 14:11:19;;;;;;;1.17;0.57;;;;;;;;;;4411758;32;20196;-61
2023/11/27 14:13:48;;;;;;;0.80;0.80;;;;;;;;;;4424597;32;20165;-61
2023/11/27 14:16:19;;;;;;;0.50;0.50;;;;;;;;;;4409495;32;20518;-59
2023/11/27 14:18:50;;;;;;;;;;;;;;;;;;4426641;32;20109;-59
2023/11/27 14:24:14;;;;;;;0.30;0.30;;;;;;;;;;4407007;32;20106;-61
2023/11/27 14:27:14;;;;;;;0.60;0.60;;;;;;;;;;4419075;32;20101;-56
2023/11/27 14:29:33;;;;;;;0.35;0.35;;;;;;;;;;4409519;32;20133;-59
2023/11/27 14:32:02;;;;;;;0.32;0.32;;;;;;;;;;4423474;32;20149;-62
2023/11/27 14:34:28;;;;;;;0.40;0.40;;;;;;;;;;4422452;32;20081;-60
2023/11/27 14:36:55;;;;;;;0.40;0.40;;;;;;;;;;4422864;32;20117;-59
2023/11/27 14:39:21;;;;;;;2.65;1.23;;;;;;;;;;4422557;32;20544;-57
2023/11/27 14:41:51;;;;;;;0.43;0.43;;;;;;;;;;4416869;32;20065;-56
2023/11/27 14:44:18;;;;;;;3.53;1.23;;;;;;;;;;4427487;32;20509;-59
2023/11/27 14:46:44;;;;;;;0.40;0.40;;;;;;;;;;4412077;32;20588;-55
2023/11/27 14:49:10;;;;;;;0.60;0.60;;;;;;;;;;4425045;32;20097;-57
2023/11/27 14:51:37;;;;;;;0.40;0.40;;;;;;;;;;4424296;32;20136;-55